createdAt,value
2022-09-15T00:01:29.813Z,14.94
2022-09-15T00:03:58.187Z,15.11
2022-09-15T00:06:26.497Z,15.16
2022-09-15T00:08:55.049Z,15.19
2022-09-15T00:11:27.213Z,15.15
2022-09-15T00:13:56.977Z,15.05
2022-09-15T00:16:27.022Z,14.96
2022-09-15T00:18:55.813Z,14.99
2022-09-15T00:21:25.927Z,15.07
2022-09-15T00:23:54.855Z,15.04
2022-09-15T00:26:27.018Z,15.03
2022-09-15T00:28:55.813Z,15.13
2022-09-15T00:31:26.229Z,15.16
2022-09-15T00:33:58.017Z,15.18
2022-09-15T00:36:27.119Z,15.12
2022-09-15T00:38:56.038Z,15.04
2022-09-15T00:41:26.136Z,15.04
2022-09-15T00:43:56.185Z,14.98
2022-09-15T00:46:26.350Z,15.00
2022-09-15T00:49:00.855Z,15.04
2022-09-15T00:51:35.514Z,15.10
2022-09-15T00:54:08.424Z,15.01
2022-09-15T00:56:40.053Z,14.99
2022-09-15T00:59:12.786Z,15.00
2022-09-15T01:01:45.029Z,15.04
2022-09-15T01:04:14.348Z,15.10
2022-09-15T01:06:50.558Z,15.02
2022-09-15T01:09:23.659Z,15.05
2022-09-15T01:11:53.306Z,14.98
2022-09-15T01:14:21.390Z,14.85
2022-09-15T01:16:58.060Z,14.89
2022-09-15T01:20:00.148Z,14.89
2022-09-15T01:22:37.934Z,14.76
2022-09-15T01:25:11.359Z,14.88
2022-09-15T01:28:08.095Z,14.90
2022-09-15T01:30:41.140Z,14.94
2022-09-15T01:33:26.150Z,14.94
2022-09-15T01:36:02.035Z,14.93
2022-09-15T01:38:39.902Z,14.96
2022-09-15T01:41:13.054Z,14.82
2022-09-15T01:43:47.244Z,14.93
2022-09-15T01:46:18.747Z,14.85
2022-09-15T01:48:49.375Z,14.88
2022-09-15T01:51:18.019Z,14.84
2022-09-15T01:53:47.477Z,14.83
2022-09-15T01:56:15.922Z,14.82
2022-09-15T01:58:44.173Z,14.84
2022-09-15T02:01:19.029Z,14.89
2022-09-15T02:03:51.068Z,15.00
2022-09-15T02:06:25.562Z,14.94
2022-09-15T02:08:58.656Z,14.99
2022-09-15T02:11:28.301Z,14.97
2022-09-15T02:14:03.812Z,14.94
2022-09-15T02:16:36.628Z,15.00
2022-09-15T02:19:11.214Z,14.92
2022-09-15T02:21:53.549Z,14.84
2022-09-15T02:24:26.949Z,14.77
2022-09-15T02:26:56.502Z,14.84
2022-09-15T02:29:28.463Z,14.86
2022-09-15T02:32:06.884Z,14.73
2022-09-15T02:34:38.629Z,14.77
2022-09-15T02:37:07.969Z,14.90
2022-09-15T02:39:40.936Z,14.82
2022-09-15T02:42:09.619Z,14.89
2022-09-15T02:44:37.836Z,14.73
2022-09-15T02:47:07.674Z,14.76
2022-09-15T02:49:35.842Z,14.84
2022-09-15T02:52:04.477Z,14.88
2022-09-15T02:54:32.515Z,14.83
2022-09-15T02:57:01.299Z,14.71
2022-09-15T02:59:49.820Z,14.73
2022-09-15T03:02:20.836Z,14.74
2022-09-15T03:04:49.735Z,14.82
2022-09-15T03:07:18.577Z,14.77
2022-09-15T03:09:46.783Z,14.77
2022-09-15T03:12:15.100Z,14.81
2022-09-15T03:14:43.461Z,14.74
2022-09-15T03:17:11.677Z,14.77
2022-09-15T03:19:41.316Z,14.73
2022-09-15T03:22:09.605Z,14.74
2022-09-15T03:24:38.499Z,14.75
2022-09-15T03:27:07.069Z,14.70
2022-09-15T03:29:35.073Z,14.66
2022-09-15T03:32:04.100Z,14.65
2022-09-15T03:34:32.943Z,14.66
2022-09-15T03:37:02.565Z,14.64
2022-09-15T03:39:30.675Z,14.67
2022-09-15T03:41:58.870Z,14.71
2022-09-15T03:44:27.115Z,14.68
2022-09-15T03:46:55.229Z,14.68
2022-09-15T03:49:24.574Z,14.67
2022-09-15T03:51:52.734Z,14.68
2022-09-15T03:54:22.590Z,14.65
2022-09-15T03:56:52.024Z,14.71
2022-09-15T03:59:21.245Z,14.69
2022-09-15T04:01:50.570Z,14.74
2022-09-15T04:04:18.953Z,14.74
2022-09-15T04:06:47.193Z,14.75
2022-09-15T04:09:15.461Z,14.87
2022-09-15T04:11:45.268Z,14.84
2022-09-15T04:14:13.242Z,14.80
2022-09-15T04:16:41.501Z,14.79
2022-09-15T04:19:09.923Z,14.80
2022-09-15T04:21:38.387Z,14.91
2022-09-15T04:24:06.763Z,14.94
2022-09-15T04:26:36.983Z,14.93
2022-09-15T04:29:12.730Z,14.89
2022-09-15T04:31:41.209Z,14.83
2022-09-15T04:34:10.282Z,14.86
2022-09-15T04:36:38.680Z,14.88
2022-09-15T04:39:07.611Z,14.94
2022-09-15T04:41:35.572Z,14.93
2022-09-15T04:44:04.553Z,14.89
2022-09-15T04:46:34.320Z,14.83
2022-09-15T04:49:02.484Z,14.81
2022-09-15T04:51:31.186Z,14.43
2022-09-15T04:53:59.506Z,14.29
2022-09-15T04:56:29.064Z,14.07
2022-09-15T04:59:03.636Z,14.13
2022-09-15T05:01:36.204Z,14.08
2022-09-15T05:04:05.840Z,14.07
2022-09-15T05:06:35.068Z,14.02
2022-09-15T05:09:09.823Z,13.92
2022-09-15T05:11:39.213Z,13.79
2022-09-15T05:14:10.094Z,13.63
2022-09-15T05:16:40.890Z,13.54
2022-09-15T05:19:09.668Z,13.26
2022-09-15T05:21:37.737Z,13.31
2022-09-15T05:24:06.258Z,13.17
2022-09-15T05:26:34.524Z,13.13
2022-09-15T05:29:02.906Z,12.99
2022-09-15T05:31:34.212Z,12.98
2022-09-15T05:34:06.077Z,13.04
2022-09-15T05:36:34.688Z,13.22
2022-09-15T05:39:03.077Z,13.28
2022-09-15T05:41:31.648Z,13.18
2022-09-15T05:44:00.577Z,13.06
2022-09-15T05:46:30.285Z,12.86
2022-09-15T05:48:59.877Z,12.83
2022-09-15T05:51:30.626Z,13.06
2022-09-15T05:53:58.628Z,13.45
2022-09-15T05:56:26.798Z,13.39
2022-09-15T05:58:55.135Z,13.36
2022-09-15T06:01:25.358Z,13.31
2022-09-15T06:03:54.285Z,13.30
2022-09-15T06:06:23.469Z,13.37
2022-09-15T06:08:58.081Z,13.24
2022-09-15T06:11:28.725Z,13.27
2022-09-15T06:13:57.188Z,13.25
2022-09-15T06:16:26.830Z,13.23
2022-09-15T06:18:55.458Z,13.25
2022-09-15T06:21:25.616Z,13.27
2022-09-15T06:23:55.996Z,13.25
2022-09-15T06:26:24.886Z,13.27
2022-09-15T06:28:54.925Z,13.30
2022-09-15T06:31:24.089Z,13.25
2022-09-15T06:33:54.729Z,13.34
2022-09-15T06:36:24.636Z,13.45
2022-09-15T06:38:53.387Z,13.46
2022-09-15T06:41:23.720Z,13.43
2022-09-15T06:43:53.316Z,13.47
2022-09-15T06:46:23.498Z,13.57
2022-09-15T06:48:52.385Z,13.62
2022-09-15T06:51:22.793Z,13.71
2022-09-15T06:53:51.431Z,13.66
2022-09-15T06:56:21.842Z,13.72
2022-09-15T06:58:52.020Z,13.86
2022-09-15T07:01:23.192Z,13.78
2022-09-15T07:03:51.503Z,13.86
2022-09-15T07:06:20.155Z,13.96
2022-09-15T07:08:49.832Z,13.91
2022-09-15T07:11:18.831Z,14.03
2022-09-15T07:13:50.319Z,13.97
2022-09-15T07:16:19.783Z,13.95
2022-09-15T07:18:48.554Z,13.95
2022-09-15T07:21:20.336Z,13.96
2022-09-15T07:23:49.357Z,13.98
2022-09-15T07:26:19.298Z,14.06
2022-09-15T07:28:50.118Z,14.08
2022-09-15T07:31:22.741Z,14.09
2022-09-15T07:33:51.192Z,14.19
2022-09-15T07:36:20.500Z,14.31
2022-09-15T07:38:50.462Z,14.47
2022-09-15T07:41:19.985Z,14.61
2022-09-15T07:43:49.200Z,14.63
2022-09-15T07:46:18.084Z,14.67
2022-09-15T07:48:48.331Z,14.64
2022-09-15T07:51:17.791Z,14.58
2022-09-15T07:53:47.334Z,14.50
2022-09-15T07:56:17.752Z,14.64
2022-09-15T07:58:46.149Z,14.73
2022-09-15T08:01:15.163Z,14.86
2022-09-15T08:03:44.363Z,14.92
2022-09-15T08:06:14.898Z,14.94
2022-09-15T08:08:44.159Z,14.94
2022-09-15T08:11:18.501Z,14.91
2022-09-15T08:13:47.570Z,14.91
2022-09-15T08:16:18.066Z,14.86
2022-09-15T08:18:46.741Z,14.86
2022-09-15T08:21:18.136Z,14.81
2022-09-15T08:23:46.310Z,14.88
2022-09-15T08:26:14.760Z,14.87
2022-09-15T08:28:43.652Z,14.87
2022-09-15T08:31:14.604Z,14.79
2022-09-15T08:33:45.713Z,14.78
2022-09-15T08:36:15.948Z,14.84
2022-09-15T08:38:45.692Z,15.03
2022-09-15T08:41:20.037Z,15.53
2022-09-15T08:43:53.336Z,16.30
2022-09-15T08:46:26.172Z,16.83
2022-09-15T08:49:02.950Z,17.10
2022-09-15T08:51:42.776Z,16.95
2022-09-15T08:54:17.634Z,16.81
2022-09-15T08:56:46.259Z,16.78
2022-09-15T08:59:17.024Z,16.66
2022-09-15T09:01:58.832Z,16.70
2022-09-15T09:04:50.194Z,16.58
2022-09-15T09:07:34.891Z,16.63
2022-09-15T09:10:12.798Z,16.70
2022-09-15T09:12:55.410Z,16.60
2022-09-15T09:15:34.049Z,16.65
2022-09-15T09:18:20.627Z,16.77
2022-09-15T09:20:59.285Z,16.81
2022-09-15T09:23:31.323Z,16.79
2022-09-15T09:26:02.008Z,17.02
2022-09-15T09:28:32.948Z,17.01
2022-09-15T09:31:08.467Z,17.06
2022-09-15T09:33:47.591Z,16.96
2022-09-15T09:36:16.285Z,16.94
2022-09-15T09:38:48.248Z,16.69
2022-09-15T09:41:19.825Z,16.48
2022-09-15T09:43:50.323Z,16.45
2022-09-15T09:46:20.687Z,16.40
2022-09-15T09:48:54.109Z,16.22
2022-09-15T09:51:36.934Z,16.24
2022-09-15T09:54:11.906Z,16.30
2022-09-15T09:56:41.181Z,16.31
2022-09-15T09:59:33.958Z,16.48
2022-09-15T10:02:19.269Z,16.60
2022-09-15T10:04:50.056Z,16.73
2022-09-15T10:07:20.483Z,16.80
2022-09-15T10:09:58.638Z,16.79
2022-09-15T10:12:33.424Z,16.95
2022-09-15T10:15:03.875Z,16.94
2022-09-15T10:17:44.265Z,16.99
2022-09-15T10:20:26.091Z,16.99
2022-09-15T10:23:04.075Z,16.95
2022-09-15T10:25:57.496Z,17.02
2022-09-15T10:28:27.043Z,17.11
2022-09-15T10:31:05.088Z,17.17
2022-09-15T10:33:36.049Z,17.28
2022-09-15T10:36:08.830Z,17.34
2022-09-15T10:38:45.844Z,17.09
2022-09-15T10:41:25.490Z,17.09
2022-09-15T10:44:28.845Z,17.10
2022-09-15T10:47:10.282Z,17.07
2022-09-15T10:49:50.066Z,17.11
2022-09-15T10:52:28.216Z,17.24
2022-09-15T10:55:27.808Z,17.09
2022-09-15T10:58:24.662Z,17.11
2022-09-15T11:01:03.488Z,17.10
2022-09-15T11:04:12.597Z,17.04
2022-09-15T11:06:47.045Z,17.11
2022-09-15T11:09:20.608Z,16.99
2022-09-15T11:12:08.546Z,16.96
2022-09-15T11:14:49.068Z,16.84
2022-09-15T11:17:36.013Z,16.75
2022-09-15T11:20:30.186Z,16.73
2022-09-15T11:23:05.010Z,16.73
2022-09-15T11:25:36.860Z,16.63
2022-09-15T11:28:14.195Z,16.64
2022-09-15T11:30:53.633Z,16.71
2022-09-15T11:33:27.463Z,16.69
2022-09-15T11:36:00.570Z,16.67
2022-09-15T11:38:37.057Z,16.75
2022-09-15T11:41:19.242Z,16.81
2022-09-15T11:43:56.862Z,16.78
2022-09-15T11:46:32.058Z,16.80
2022-09-15T11:49:05.622Z,16.84
2022-09-15T11:51:40.622Z,16.97
2022-09-15T11:54:15.008Z,17.06
2022-09-15T11:56:46.465Z,17.13
2022-09-15T11:59:26.118Z,16.87
2022-09-15T12:02:03.508Z,16.78
2022-09-15T12:04:35.357Z,16.63
2022-09-15T12:07:13.835Z,16.64
2022-09-15T12:09:42.916Z,16.72
2022-09-15T12:12:16.884Z,16.80
2022-09-15T12:14:46.730Z,16.73
2022-09-15T12:17:20.524Z,16.74
2022-09-15T12:19:55.713Z,16.81
2022-09-15T12:22:29.163Z,16.88
2022-09-15T12:25:02.959Z,16.90
2022-09-15T12:27:31.418Z,16.95
2022-09-15T12:30:01.371Z,17.07
2022-09-15T12:32:33.537Z,16.90
2022-09-15T12:35:13.367Z,16.87
2022-09-15T12:37:45.425Z,16.76
2022-09-15T12:40:34.246Z,16.71
2022-09-15T12:43:04.733Z,16.57
2022-09-15T12:45:36.677Z,16.45
2022-09-15T12:48:13.749Z,16.67
2022-09-15T12:50:44.222Z,16.70
2022-09-15T12:53:20.510Z,17.00
2022-09-15T12:55:52.448Z,17.24
2022-09-15T12:58:27.809Z,17.25
2022-09-15T13:01:34.419Z,17.16
2022-09-15T13:04:44.518Z,16.99
2022-09-15T13:07:38.724Z,16.76
2022-09-15T13:10:39.651Z,16.66
2022-09-15T13:13:23.929Z,16.86
2022-09-15T13:15:56.300Z,16.82
2022-09-15T13:18:26.565Z,16.88
2022-09-15T13:21:00.668Z,16.87
2022-09-15T13:23:38.513Z,17.00
2022-09-15T13:26:13.869Z,17.19
2022-09-15T13:28:43.281Z,17.12
2022-09-15T13:31:29.935Z,17.10
2022-09-15T13:38:12.639Z,16.77
2022-09-15T13:41:03.564Z,16.74
2022-09-15T13:43:46.400Z,16.68
2022-09-15T13:46:29.263Z,16.66
2022-09-15T13:49:17.125Z,16.67
2022-09-15T13:51:53.407Z,16.79
2022-09-15T13:54:22.031Z,16.69
2022-09-15T13:56:53.336Z,16.79
2022-09-15T13:59:25.831Z,16.72
2022-09-15T14:01:55.089Z,16.83
2022-09-15T14:04:25.530Z,16.78
2022-09-15T14:06:59.996Z,16.63
2022-09-15T14:09:33.398Z,16.55
2022-09-15T14:12:06.398Z,16.58
2022-09-15T14:14:42.119Z,16.62
2022-09-15T14:17:20.688Z,16.29
2022-09-15T14:19:50.212Z,16.33
2022-09-15T14:22:27.732Z,16.52
2022-09-15T14:24:57.203Z,16.47
2022-09-15T14:27:29.090Z,16.49
2022-09-15T14:29:58.973Z,16.50
2022-09-15T14:32:29.524Z,16.47
2022-09-15T14:35:01.370Z,16.46
2022-09-15T14:37:32.245Z,16.48
2022-09-15T14:40:02.093Z,16.47
2022-09-15T14:42:36.522Z,16.41
2022-09-15T14:48:07.478Z,16.45
2022-09-15T14:50:36.698Z,16.29
2022-09-15T14:53:06.756Z,16.31
2022-09-15T14:55:41.287Z,16.49
2022-09-15T14:58:16.730Z,16.50
2022-09-15T15:00:54.668Z,16.54
2022-09-15T15:03:31.549Z,16.45
2022-09-15T15:06:12.731Z,16.27
2022-09-15T15:08:58.100Z,16.40
2022-09-15T15:11:26.704Z,16.48
2022-09-15T15:13:57.678Z,16.44
2022-09-15T15:16:28.597Z,16.34
2022-09-15T15:18:57.309Z,16.28
2022-09-15T15:21:40.428Z,16.30
2022-09-15T15:27:40.866Z,16.19
2022-09-15T15:30:37.856Z,16.30
2022-09-15T15:33:10.922Z,16.20
2022-09-15T15:35:39.230Z,16.19
2022-09-15T15:38:13.959Z,16.22
2022-09-15T15:40:44.089Z,16.28
2022-09-15T15:43:24.363Z,16.24
2022-09-15T15:45:58.546Z,16.09
2022-09-15T15:48:27.965Z,16.10
2022-09-15T15:50:56.476Z,16.23
2022-09-15T15:53:25.072Z,16.14
2022-09-15T15:55:54.090Z,16.03
2022-09-15T15:58:23.718Z,16.03
2022-09-15T16:00:55.357Z,16.06
2022-09-15T16:03:24.528Z,16.04
2022-09-15T16:05:55.320Z,16.18
2022-09-15T16:08:29.849Z,16.00
2022-09-15T16:10:59.388Z,16.01
2022-09-15T16:13:28.582Z,16.08
2022-09-15T16:16:00.470Z,16.12
2022-09-15T16:18:29.861Z,16.07
2022-09-15T16:20:57.975Z,16.13
2022-09-15T16:23:26.106Z,16.02
2022-09-15T16:25:57.701Z,15.96
2022-09-15T16:28:25.744Z,15.93
2022-09-15T16:30:54.205Z,15.86
2022-09-15T16:33:24.127Z,15.83
2022-09-15T16:35:55.622Z,15.88
2022-09-15T16:38:26.056Z,15.86
2022-09-15T16:40:54.443Z,15.91
2022-09-15T16:43:24.048Z,15.97
2022-09-15T16:45:53.299Z,15.95
2022-09-15T16:48:24.636Z,15.96
2022-09-15T16:51:20.475Z,16.03
2022-09-15T16:53:42.691Z,15.99
2022-09-15T16:56:16.550Z,16.00
2022-09-15T16:58:48.700Z,15.95
2022-09-15T17:01:22.877Z,15.94
2022-09-15T17:03:55.132Z,15.92
2022-09-15T17:06:27.739Z,15.89
2022-09-15T17:08:57.008Z,15.88
2022-09-15T17:11:26.459Z,15.83
2022-09-15T17:13:54.879Z,15.84
2022-09-15T17:16:23.761Z,15.90
2022-09-15T17:18:53.634Z,15.88
2022-09-15T17:21:22.613Z,16.00
2022-09-15T17:23:51.316Z,15.85
2022-09-15T17:26:24.640Z,15.85
2022-09-15T17:28:55.901Z,15.87
2022-09-15T17:31:28.301Z,15.88
2022-09-15T17:33:58.542Z,15.89
2022-09-15T17:36:27.519Z,15.82
2022-09-15T17:38:55.869Z,15.78
2022-09-15T17:41:24.170Z,15.80
2022-09-15T17:43:52.484Z,15.81
2022-09-15T17:46:20.854Z,15.86
2022-09-15T17:48:50.803Z,15.80
2022-09-15T17:51:20.976Z,15.80
2022-09-15T17:53:49.033Z,15.71
2022-09-15T17:56:17.233Z,15.76
2022-09-15T17:58:46.122Z,15.80
2022-09-15T18:01:15.766Z,15.72
2022-09-15T18:03:45.296Z,15.72
2022-09-15T18:06:14.146Z,15.71
2022-09-15T18:08:43.895Z,15.73
2022-09-15T18:11:15.678Z,15.72
2022-09-15T18:13:43.864Z,15.77
2022-09-15T18:16:14.595Z,15.77
2022-09-15T18:18:43.400Z,15.86
2022-09-15T18:21:25.831Z,15.76
2022-09-15T18:23:57.640Z,15.66
2022-09-15T18:26:26.769Z,15.69
2022-09-15T18:28:56.066Z,15.73
2022-09-15T18:31:24.595Z,15.78
2022-09-15T18:33:52.922Z,15.69
2022-09-15T18:36:21.262Z,15.71
2022-09-15T18:38:49.557Z,15.67
2022-09-15T18:41:19.478Z,15.61
2022-09-15T18:43:49.214Z,15.64
2022-09-15T18:46:18.618Z,15.59
2022-09-15T18:48:47.058Z,15.71
2022-09-15T18:51:23.645Z,15.74
2022-09-15T18:53:54.443Z,15.72
2022-09-15T18:56:24.806Z,15.62
2022-09-15T18:58:57.331Z,15.67
2022-09-15T19:01:25.937Z,15.68
2022-09-15T19:03:54.360Z,15.46
2022-09-15T19:06:22.939Z,15.52
2022-09-15T19:08:51.321Z,15.55
2022-09-15T19:11:19.965Z,15.49
2022-09-15T19:13:49.586Z,15.40
2022-09-15T19:16:20.139Z,15.59
2022-09-15T19:18:51.516Z,15.51
2022-09-15T19:21:21.924Z,15.64
2022-09-15T19:23:56.678Z,15.68
2022-09-15T19:26:28.844Z,15.55
2022-09-15T19:28:59.274Z,15.49
2022-09-15T19:31:28.461Z,15.54
2022-09-15T19:33:58.589Z,15.57
2022-09-15T19:36:28.964Z,15.59
2022-09-15T19:38:57.546Z,15.61
2022-09-15T19:41:25.633Z,15.60
2022-09-15T19:43:53.989Z,15.65
2022-09-15T19:46:26.591Z,15.57
2022-09-15T19:48:55.549Z,15.52
2022-09-15T19:51:24.957Z,15.53
2022-09-15T19:53:56.007Z,15.45
2022-09-15T19:56:26.356Z,15.39
2022-09-15T19:58:55.859Z,15.40
2022-09-15T20:01:27.158Z,15.45
2022-09-15T20:03:56.226Z,15.40
2022-09-15T20:06:28.906Z,15.40
2022-09-15T20:09:00.733Z,15.47
2022-09-15T20:11:29.794Z,15.41
2022-09-15T20:13:58.669Z,15.36
2022-09-15T20:16:29.039Z,15.36
2022-09-15T20:18:57.537Z,15.44
2022-09-15T20:21:48.752Z,15.54
2022-09-15T20:24:16.452Z,15.54
2022-09-15T20:26:44.745Z,15.40
2022-09-15T20:29:13.235Z,15.50
2022-09-15T20:31:43.763Z,15.41
2022-09-15T20:34:11.945Z,15.39
2022-09-15T20:36:40.942Z,15.38
2022-09-15T20:39:13.553Z,15.40
2022-09-15T20:41:45.044Z,15.50
2022-09-15T20:44:13.521Z,15.37
2022-09-15T20:46:43.450Z,15.46
2022-09-15T20:49:12.402Z,15.41
2022-09-15T20:51:40.885Z,15.36
2022-09-15T20:54:09.262Z,15.34
2022-09-15T20:56:38.403Z,15.33
2022-09-15T20:59:10.613Z,15.27
2022-09-15T21:01:40.186Z,15.46
2022-09-15T21:04:10.980Z,15.34
2022-09-15T21:06:39.897Z,15.35
2022-09-15T21:09:08.799Z,15.30
2022-09-15T21:11:37.182Z,15.31
2022-09-15T21:14:05.522Z,15.35
2022-09-15T21:16:35.092Z,15.30
2022-09-15T21:19:03.487Z,15.30
2022-09-15T21:21:34.585Z,15.29
2022-09-15T21:24:05.059Z,15.30
2022-09-15T21:26:35.010Z,15.23
2022-09-15T21:29:04.404Z,15.20
2022-09-15T21:31:33.971Z,15.18
2022-09-15T21:34:02.228Z,15.16
2022-09-15T21:36:33.099Z,15.23
2022-09-15T21:39:02.852Z,15.18
2022-09-15T21:41:31.586Z,15.21
2022-09-15T21:44:01.304Z,15.18
2022-09-15T21:46:32.057Z,15.13
2022-09-15T21:49:01.586Z,15.18
2022-09-15T21:51:31.277Z,15.21
2022-09-15T21:54:01.675Z,15.28
2022-09-15T21:56:31.366Z,15.22
2022-09-15T21:58:59.776Z,15.24
2022-09-15T22:01:30.383Z,15.31
2022-09-15T22:04:00.370Z,15.31
2022-09-15T22:06:32.078Z,15.27
2022-09-15T22:09:03.318Z,15.18
2022-09-15T22:11:31.778Z,15.20
2022-09-15T22:14:00.132Z,15.21
2022-09-15T22:16:28.364Z,15.18
2022-09-15T22:18:57.217Z,15.16
2022-09-15T22:21:27.428Z,15.18
2022-09-15T22:23:57.363Z,15.17
2022-09-15T22:26:28.970Z,15.23
2022-09-15T22:28:57.838Z,15.10
2022-09-15T22:31:26.953Z,15.14
2022-09-15T22:33:55.718Z,15.23
2022-09-15T22:36:29.200Z,15.23
2022-09-15T22:39:03.925Z,15.14
2022-09-15T22:41:34.821Z,15.06
2022-09-15T22:44:03.620Z,15.04
2022-09-15T22:46:32.235Z,15.05
2022-09-15T22:49:00.539Z,14.99
2022-09-15T22:51:28.827Z,15.00
2022-09-15T22:53:57.663Z,14.99
2022-09-15T22:56:35.222Z,14.99
2022-09-15T22:59:03.471Z,14.99
2022-09-15T23:01:32.153Z,15.03
2022-09-15T23:04:02.476Z,15.01
2022-09-15T23:06:32.936Z,14.97
2022-09-15T23:09:03.461Z,15.07
2022-09-15T23:11:32.514Z,15.07
2022-09-15T23:14:02.931Z,14.96
2022-09-15T23:16:31.737Z,14.98
2022-09-15T23:19:00.426Z,14.97
2022-09-15T23:21:29.164Z,15.02
2022-09-15T23:23:57.495Z,15.00
2022-09-15T23:26:26.823Z,14.93
2022-09-15T23:28:56.394Z,14.98
2022-09-15T23:31:25.963Z,14.99
2022-09-15T23:33:54.180Z,15.03
2022-09-15T23:36:22.694Z,15.05
2022-09-15T23:38:51.084Z,15.04
2022-09-15T23:41:19.569Z,15.03
2022-09-15T23:43:48.013Z,15.10
2022-09-15T23:46:16.639Z,15.04
2022-09-15T23:48:46.131Z,15.11
2022-09-15T23:51:14.788Z,15.12
2022-09-15T23:53:43.006Z,15.14
2022-09-15T23:56:11.358Z,15.11
2022-09-15T23:58:39.982Z,15.08
